Time;durP1;ratioP1;P1;durP2;ratioP2;P2;SDS_P1;SDS_P2;PMS_P1;PMS_P2;Temp;Humidity;BMP_temperature;BMP_pressure;BME280_temperature;BME280_humidity;BME280_pressure;Samples;Min_cycle;Max_cycle;Signal;HPM_P1;HPM_P2
2022/01/21 00:00:32;;;;;;;13.07;6.18;;;;;;;;;;6267072;28;20017;-67
2022/01/21 00:03:33;;;;;;;20.73;5.82;;;;;;;;;;6252703;28;20067;-67
2022/01/21 00:06:34;;;;;;;16.30;10.10;;;;;;;;;;6271310;28;20059;-67
2022/01/21 00:09:34;;;;;;;21.60;7.75;;;;;;;;;;6271269;28;20100;-67
2022/01/21 00:12:36;;;;;;;17.90;6.35;;;;;;;;;;6271575;28;20051;-68
2022/01/21 00:15:36;;;;;;;20.08;8.60;;;;;;;;;;6270853;28;20025;-67
2022/01/21 00:18:37;;;;;;;10.82;4.63;;;;;;;;;;6271079;28;20040;-67
2022/01/21 00:31:34;;;;;;;13.13;5.03;;;;;;;;;;6246153;28;20025;-67
2022/01/21 00:34:35;;;;;;;8.05;4.45;;;;;;;;;;6245815;28;20401;-67
2022/01/21 00:37:36;;;;;;;18.85;4.72;;;;;;;;;;6246145;28;20032;-67
2022/01/21 00:40:36;;;;;;;17.67;5.50;;;;;;;;;;6246525;28;20024;-67
2022/01/21 00:43:43;;;;;;;9.38;3.50;;;;;;;;;;6252748;28;20025;-67
2022/01/21 00:46:43;;;;;;;10.55;4.85;;;;;;;;;;6270243;28;20017;-67
2022/01/21 00:49:44;;;;;;;13.27;5.57;;;;;;;;;;6270423;28;20017;-67
2022/01/21 00:52:44;;;;;;;10.35;4.78;;;;;;;;;;6270729;28;20017;-67
2022/01/21 00:55:45;;;;;;;12.63;4.47;;;;;;;;;;6270293;28;20067;-67
2022/01/21 00:58:45;;;;;;;9.80;4.65;;;;;;;;;;6270643;28;20017;-67
2022/01/21 01:01:45;;;;;;;7.75;4.38;;;;;;;;;;6270568;28;20025;-67
2022/01/21 01:04:45;;;;;;;12.55;4.65;;;;;;;;;;6270131;28;20388;-67
2022/01/21 01:07:46;;;;;;;13.00;6.00;;;;;;;;;;6270203;28;20021;-67
2022/01/21 01:11:11;;;;;;;8.13;3.80;;;;;;;;;;6270466;28;20020;-67
2022/01/21 01:20:44;;;;;;;8.50;3.85;;;;;;;;;;6270315;28;20017;-67
2022/01/21 01:30:24;;;;;;;8.00;2.97;;;;;;;;;;6270330;28;20476;-67
2022/01/21 01:33:33;;;;;;;6.97;2.67;;;;;;;;;;6269542;28;20021;-67
2022/01/21 01:36:34;;;;;;;7.03;2.60;;;;;;;;;;6269557;28;20025;-67
2022/01/21 01:39:43;;;;;;;8.68;3.60;;;;;;;;;;6269516;28;20032;-67
2022/01/21 01:49:32;;;;;;;8.30;3.00;;;;;;;;;;6277467;28;20048;-67
2022/01/21 01:52:33;;;;;;;11.48;4.70;;;;;;;;;;6273358;28;20025;-67
2022/01/21 01:55:34;;;;;;;6.93;3.88;;;;;;;;;;6269305;28;20047;-67
2022/01/21 01:58:38;;;;;;;12.85;5.55;;;;;;;;;;6268521;28;20021;-67
2022/01/21 02:01:38;;;;;;;9.60;4.70;;;;;;;;;;6267993;28;20017;-67
2022/01/21 02:04:39;;;;;;;5.88;2.63;;;;;;;;;;6269214;28;20035;-67
2022/01/21 02:07:39;;;;;;;4.93;2.70;;;;;;;;;;6268839;28;20021;-67
2022/01/21 02:10:40;;;;;;;16.50;4.72;;;;;;;;;;6269127;28;20021;-67
2022/01/21 02:13:45;;;;;;;13.00;4.03;;;;;;;;;;6268864;28;20401;-67
2022/01/21 02:23:33;;;;;;;9.88;3.05;;;;;;;;;;6269201;28;20108;-67
2022/01/21 02:26:34;;;;;;;10.52;3.85;;;;;;;;;;6267370;28;20031;-67
2022/01/21 02:29:44;;;;;;;7.10;2.95;;;;;;;;;;6268461;28;20028;-67
2022/01/21 02:32:58;;;;;;;8.63;2.53;;;;;;;;;;6268197;28;20396;-67
2022/01/21 02:35:58;;;;;;;7.32;3.13;;;;;;;;;;6267946;28;20100;-67
2022/01/21 02:38:58;;;;;;;9.25;3.55;;;;;;;;;;6268700;28;20021;-67
2022/01/21 02:41:58;;;;;;;9.67;2.60;;;;;;;;;;6268475;28;20499;-67
2022/01/21 02:44:59;;;;;;;5.63;2.58;;;;;;;;;;6258762;28;20021;-67
2022/01/21 02:48:00;;;;;;;7.87;2.50;;;;;;;;;;6243513;28;20493;-67
2022/01/21 02:51:01;;;;;;;6.25;2.65;;;;;;;;;;6251982;28;20024;-67
2022/01/21 02:54:04;;;;;;;6.03;2.35;;;;;;;;;;6267639;28;20124;-67
2022/01/21 02:57:06;;;;;;;8.45;3.28;;;;;;;;;;6267273;28;20489;-67
2022/01/21 03:00:06;;;;;;;3.60;1.55;;;;;;;;;;6267652;28;20024;-67
2022/01/21 03:03:07;;;;;;;8.65;2.53;;;;;;;;;;6268445;28;20025;-67
2022/01/21 03:06:07;;;;;;;6.75;2.65;;;;;;;;;;6267658;28;20063;-67
2022/01/21 03:09:08;;;;;;;8.40;2.63;;;;;;;;;;6268031;28;20028;-67
2022/01/21 03:12:08;;;;;;;2.57;2.33;;;;;;;;;;6268067;28;20053;-67
2022/01/21 03:15:08;;;;;;;11.03;3.40;;;;;;;;;;6267318;28;20020;-67
2022/01/21 03:18:09;;;;;;;9.52;3.03;;;;;;;;;;6267734;28;20021;-67
2022/01/21 03:21:15;;;;;;;5.28;2.50;;;;;;;;;;6267841;28;20104;-67
2022/01/21 03:24:15;;;;;;;4.13;2.83;;;;;;;;;;6267545;28;20469;-67
2022/01/21 03:27:16;;;;;;;7.38;2.58;;;;;;;;;;6267216;28;20039;-67
2022/01/21 03:30:17;;;;;;;6.97;2.93;;;;;;;;;;6267710;28;20271;-67
2022/01/21 03:33:17;;;;;;;4.07;2.60;;;;;;;;;;6267602;28;20025;-67
2022/01/21 03:36:17;;;;;;;4.50;2.93;;;;;;;;;;6267794;28;20096;-67
2022/01/21 03:39:18;;;;;;;8.77;3.33;;;;;;;;;;6272089;28;20013;-69
2022/01/21 03:42:18;;;;;;;13.50;3.72;;;;;;;;;;6273155;28;20023;-66
2022/01/21 03:45:18;;;;;;;6.82;2.40;;;;;;;;;;6260094;28;20120;-66
2022/01/21 03:48:19;;;;;;;10.77;3.27;;;;;;;;;;6247659;28;20422;-66
2022/01/21 03:51:19;;;;;;;5.23;2.87;;;;;;;;;;6257164;28;20025;-66
2022/01/21 03:54:20;;;;;;;12.10;4.03;;;;;;;;;;6252813;28;20041;-66
2022/01/21 03:57:20;;;;;;;9.77;2.92;;;;;;;;;;6270835;28;20472;-66
2022/01/21 04:00:22;;;;;;;17.00;4.63;;;;;;;;;;6272489;28;20088;-66
2022/01/21 04:03:22;;;;;;;;;;;;;;;;;;6272051;28;20021;-66
2022/01/21 04:06:22;;;;;;;7.45;3.00;;;;;;;;;;6271545;28;19912;-67
2022/01/21 04:09:23;;;;;;;10.77;2.67;;;;;;;;;;6271556;28;20021;-67
2022/01/21 04:12:23;;;;;;;6.03;3.00;;;;;;;;;;6271655;28;20029;-67
2022/01/21 04:15:23;;;;;;;6.47;2.83;;;;;;;;;;6271055;28;20017;-67
2022/01/21 04:18:24;;;;;;;6.10;2.13;;;;;;;;;;6271391;28;20092;-67
2022/01/21 04:21:24;;;;;;;14.93;3.93;;;;;;;;;;6270214;28;20025;-67
2022/01/21 04:24:24;;;;;;;8.77;3.67;;;;;;;;;;6270080;28;20381;-68
2022/01/21 04:27:25;;;;;;;7.55;3.40;;;;;;;;;;6269350;28;20021;-67
2022/01/21 04:30:25;;;;;;;16.43;7.20;;;;;;;;;;6270180;28;20028;-67
2022/01/21 04:33:25;;;;;;;11.45;5.25;;;;;;;;;;6269957;28;20044;-67
2022/01/21 04:36:25;;;;;;;9.25;3.90;;;;;;;;;;6269215;28;20021;-67
2022/01/21 04:39:31;;;;;;;14.68;6.57;;;;;;;;;;6268988;28;20020;-67
2022/01/21 04:49:09;;;;;;;18.52;6.25;;;;;;;;;;6268332;28;20486;-67
2022/01/21 04:52:09;;;;;;;8.32;3.35;;;;;;;;;;6266732;28;20039;-68
2022/01/21 04:55:10;;;;;;;5.50;3.50;;;;;;;;;;6269164;28;20455;-67
2022/01/21 04:58:10;;;;;;;11.60;4.68;;;;;;;;;;6269583;28;20102;-67
2022/01/21 05:01:11;;;;;;;5.45;3.33;;;;;;;;;;6269790;28;20009;-67
2022/01/21 05:04:11;;;;;;;6.53;3.42;;;;;;;;;;6269899;28;20048;-67
2022/01/21 05:07:18;;;;;;;9.67;4.90;;;;;;;;;;6270171;28;20384;-67
2022/01/21 05:10:19;;;;;;;8.15;4.13;;;;;;;;;;6270293;28;20025;-67
2022/01/21 05:13:23;;;;;;;18.70;3.53;;;;;;;;;;6270251;28;20052;-67
2022/01/21 05:19:24;;;;;;;8.68;4.13;;;;;;;;;;6270354;28;20396;-67
2022/01/21 05:22:24;;;;;;;15.80;5.13;;;;;;;;;;6270115;28;20027;-67
2022/01/21 05:25:24;;;;;;;18.88;4.57;;;;;;;;;;6269363;28;20096;-67
2022/01/21 05:28:25;;;;;;;10.57;5.35;;;;;;;;;;6247038;28;20032;-67
2022/01/21 05:31:25;;;;;;;20.17;7.73;;;;;;;;;;6258522;28;20370;-68
2022/01/21 05:34:25;;;;;;;11.73;4.20;;;;;;;;;;6268843;28;20066;-67
2022/01/21 05:37:26;;;;;;;8.73;3.78;;;;;;;;;;6268373;28;20059;-67
2022/01/21 05:40:26;;;;;;;12.45;4.28;;;;;;;;;;6269217;28;20017;-67
2022/01/21 05:43:27;;;;;;;9.55;4.65;;;;;;;;;;6251390;28;20420;-67
2022/01/21 05:49:47;;;;;;;13.75;4.45;;;;;;;;;;6269360;28;20045;-67
2022/01/21 05:52:48;;;;;;;17.77;5.45;;;;;;;;;;6257924;28;20047;-67
2022/01/21 05:55:48;;;;;;;14.00;4.93;;;;;;;;;;6267947;28;20059;-67
2022/01/21 05:58:48;;;;;;;11.40;4.03;;;;;;;;;;6268703;28;20009;-67
2022/01/21 06:01:49;;;;;;;8.50;3.73;;;;;;;;;;6269033;28;20024;-67
2022/01/21 06:04:51;;;;;;;9.23;5.13;;;;;;;;;;6269842;28;20036;-67
2022/01/21 06:07:51;;;;;;;17.27;5.47;;;;;;;;;;6270850;28;20496;-67
2022/01/21 06:10:51;;;;;;;9.20;3.42;;;;;;;;;;6270650;28;20320;-68
2022/01/21 06:13:51;;;;;;;13.03;5.83;;;;;;;;;;6278190;28;20376;-67
2022/01/21 06:16:52;;;;;;;9.60;5.82;;;;;;;;;;6293244;28;20095;-67
2022/01/21 06:19:52;;;;;;;17.55;7.43;;;;;;;;;;6281472;28;20366;-68
2022/01/21 06:22:53;;;;;;;16.05;6.03;;;;;;;;;;6255868;28;20041;-68
2022/01/21 06:25:53;;;;;;;21.13;6.93;;;;;;;;;;6267246;28;20401;-68
2022/01/21 06:28:53;;;;;;;24.95;9.73;;;;;;;;;;6267593;28;20210;-68
2022/01/21 06:31:54;;;;;;;12.75;5.72;;;;;;;;;;6268064;28;20017;-68
2022/01/21 06:34:54;;;;;;;14.65;6.97;;;;;;;;;;6279425;28;20523;-68
2022/01/21 06:37:54;;;;;;;12.13;6.03;;;;;;;;;;6263699;28;20009;-67
2022/01/21 06:40:54;;;;;;;8.90;4.50;;;;;;;;;;6264028;28;20449;-67
2022/01/21 06:43:55;;;;;;;16.50;6.85;;;;;;;;;;6272033;28;20107;-68
2022/01/21 06:46:55;;;;;;;19.67;6.78;;;;;;;;;;6283857;28;20017;-68
2022/01/21 06:49:58;;;;;;;32.23;11.80;;;;;;;;;;6292335;28;20434;-68
2022/01/21 06:52:59;;;;;;;22.27;9.02;;;;;;;;;;6264670;28;20502;-67
2022/01/21 06:55:59;;;;;;;24.00;9.45;;;;;;;;;;6260071;28;20056;-68
2022/01/21 06:58:59;;;;;;;21.90;9.43;;;;;;;;;;6252913;28;20012;-68
2022/01/21 07:01:59;;;;;;;11.80;6.22;;;;;;;;;;6285185;28;20017;-67
2022/01/21 07:05:00;;;;;;;13.25;4.93;;;;;;;;;;6264575;28;20476;-68
2022/01/21 07:08:01;;;;;;;13.87;7.43;;;;;;;;;;6266312;28;20028;-68
2022/01/21 07:11:01;;;;;;;22.00;10.30;;;;;;;;;;6270243;28;20444;-68
2022/01/21 07:14:02;;;;;;;19.85;6.82;;;;;;;;;;6271767;28;20025;-68
2022/01/21 07:17:03;;;;;;;22.03;6.27;;;;;;;;;;6271596;28;20017;-68
2022/01/21 07:20:04;;;;;;;11.07;5.40;;;;;;;;;;6271535;28;20013;-68
2022/01/21 07:23:04;;;;;;;18.65;10.02;;;;;;;;;;6271598;28;20244;-67
2022/01/21 07:26:05;;;;;;;28.85;8.82;;;;;;;;;;6271560;28;20461;-67
2022/01/21 07:29:05;;;;;;;15.75;6.82;;;;;;;;;;6271970;28;20507;-67
2022/01/21 07:32:06;;;;;;;10.90;5.63;;;;;;;;;;6271183;28;20028;-67
2022/01/21 07:35:09;;;;;;;8.60;6.13;;;;;;;;;;6274722;28;20362;-68
2022/01/21 07:38:09;;;;;;;25.50;7.07;;;;;;;;;;6274352;28;20013;-68
2022/01/21 07:41:09;;;;;;;17.95;5.50;;;;;;;;;;6273974;28;20024;-68
2022/01/21 07:44:12;;;;;;;24.23;8.75;;;;;;;;;;6270623;28;20388;-68
2022/01/21 07:47:12;;;;;;;17.30;7.50;;;;;;;;;;6270133;28;20495;-68
2022/01/21 07:50:12;;;;;;;12.57;5.63;;;;;;;;;;6267184;28;20018;-68
2022/01/21 07:53:13;;;;;;;48.87;14.00;;;;;;;;;;6264640;28;20344;-68
2022/01/21 07:56:13;;;;;;;30.58;14.32;;;;;;;;;;6276490;28;20021;-68
2022/01/21 07:59:15;;;;;;;35.70;14.25;;;;;;;;;;6265560;28;20040;-68
2022/01/21 08:02:15;;;;;;;15.40;5.82;;;;;;;;;;6263315;28;20013;-68
2022/01/21 08:05:15;;;;;;;25.90;10.82;;;;;;;;;;6245770;28;20484;-68
2022/01/21 08:08:15;;;;;;;16.15;6.53;;;;;;;;;;6244862;28;20071;-68
2022/01/21 08:11:16;;;;;;;30.02;11.45;;;;;;;;;;6245312;28;20219;-68
2022/01/21 08:14:16;;;;;;;22.05;7.90;;;;;;;;;;6260342;28;20029;-68
2022/01/21 08:17:16;;;;;;;19.95;8.35;;;;;;;;;;6274887;28;20523;-68
2022/01/21 08:20:17;;;;;;;22.65;11.23;;;;;;;;;;6281777;28;20028;-68
2022/01/21 08:23:17;;;;;;;9.25;5.85;;;;;;;;;;6294054;28;20053;-68
2022/01/21 08:26:18;;;;;;;23.70;9.20;;;;;;;;;;6278056;28;20031;-68
2022/01/21 08:29:18;;;;;;;28.42;10.95;;;;;;;;;;6272211;28;20457;-68
2022/01/21 08:32:20;;;;;;;20.17;8.80;;;;;;;;;;6275892;28;20031;-68
2022/01/21 08:35:20;;;;;;;20.50;9.98;;;;;;;;;;6263093;28;20029;-68
2022/01/21 08:38:21;;;;;;;31.20;10.68;;;;;;;;;;6272501;28;20400;-68
2022/01/21 08:41:22;;;;;;;24.30;8.05;;;;;;;;;;6270833;28;20449;-68
2022/01/21 08:44:22;;;;;;;21.77;7.88;;;;;;;;;;6270597;28;20465;-68
2022/01/21 08:47:23;;;;;;;27.90;9.93;;;;;;;;;;6269315;28;20421;-68
2022/01/21 08:50:23;;;;;;;25.15;10.50;;;;;;;;;;6270919;28;20044;-68
2022/01/21 08:53:36;;;;;;;24.58;8.60;;;;;;;;;;6268683;28;20086;-68
2022/01/21 08:56:36;;;;;;;19.90;8.18;;;;;;;;;;6259604;28;20068;-68
2022/01/21 08:59:36;;;;;;;28.33;10.20;;;;;;;;;;6270032;28;20393;-68
2022/01/21 09:02:37;;;;;;;16.40;7.10;;;;;;;;;;6270118;28;20025;-68
2022/01/21 09:05:37;;;;;;;18.00;8.15;;;;;;;;;;6270837;28;20602;-68
2022/01/21 09:08:40;;;;;;;22.30;9.95;;;;;;;;;;6269583;28;20025;-68
2022/01/21 09:11:41;;;;;;;18.98;6.10;;;;;;;;;;6269535;28;20054;-69
2022/01/21 09:14:41;;;;;;;17.77;7.53;;;;;;;;;;6269185;28;20036;-68
2022/01/21 09:17:41;;;;;;;33.33;13.32;;;;;;;;;;6267824;28;20017;-68
2022/01/21 09:20:41;;;;;;;38.97;9.88;;;;;;;;;;6268841;28;20044;-68
2022/01/21 09:23:42;;;;;;;23.10;11.65;;;;;;;;;;6268304;28;20470;-68
2022/01/21 09:26:43;;;;;;;19.38;10.13;;;;;;;;;;6259850;28;20029;-68
2022/01/21 09:29:43;;;;;;;12.32;5.45;;;;;;;;;;6248341;28;20021;-69
2022/01/21 09:32:44;;;;;;;23.88;10.13;;;;;;;;;;6268199;28;20009;-69
2022/01/21 09:35:44;;;;;;;24.63;11.23;;;;;;;;;;6270153;28;20052;-69
2022/01/21 09:38:45;;;;;;;25.92;10.05;;;;;;;;;;6273617;28;20477;-69
2022/01/21 09:41:45;;;;;;;13.02;6.72;;;;;;;;;;6267454;28;20021;-69
2022/01/21 09:44:46;;;;;;;16.77;9.27;;;;;;;;;;6270617;28;20511;-69
2022/01/21 09:47:48;;;;;;;12.88;6.68;;;;;;;;;;6250129;28;20563;-69
2022/01/21 09:50:49;;;;;;;24.45;7.25;;;;;;;;;;6271943;28;20424;-69
2022/01/21 09:53:50;;;;;;;19.43;7.40;;;;;;;;;;6267688;28;20547;-69
2022/01/21 09:56:52;;;;;;;43.10;13.75;;;;;;;;;;6269232;28;20286;-69
2022/01/21 09:59:53;;;;;;;39.50;14.82;;;;;;;;;;6276405;28;20020;-69
2022/01/21 10:02:54;;;;;;;28.45;11.68;;;;;;;;;;6275989;28;20028;-69
2022/01/21 10:05:55;;;;;;;23.50;10.07;;;;;;;;;;6272450;28;20027;-69
2022/01/21 10:08:56;;;;;;;31.95;7.68;;;;;;;;;;6280086;28;20016;-69
2022/01/21 10:11:57;;;;;;;17.88;8.35;;;;;;;;;;6252014;28;20077;-69
2022/01/21 10:14:57;;;;;;;18.83;7.78;;;;;;;;;;6259749;28;20074;-69
2022/01/21 10:18:01;;;;;;;14.93;7.60;;;;;;;;;;6251068;28;20038;-69
2022/01/21 10:21:06;;;;;;;13.20;5.68;;;;;;;;;;6261788;28;20535;-69
2022/01/21 10:24:11;;;;;;;45.08;20.48;;;;;;;;;;6252800;28;20036;-69
2022/01/21 10:27:21;;;;;;;12.70;5.75;;;;;;;;;;6261853;28;20017;-69
2022/01/21 10:30:23;;;;;;;11.32;5.88;;;;;;;;;;6249928;28;20021;-69
2022/01/21 10:33:24;;;;;;;12.07;4.28;;;;;;;;;;6241206;28;20497;-69
2022/01/21 10:36:30;;;;;;;13.27;5.97;;;;;;;;;;6258630;28;20032;-69
2022/01/21 10:39:32;;;;;;;11.32;5.97;;;;;;;;;;6263400;28;20562;-69
2022/01/21 10:42:32;;;;;;;16.10;6.60;;;;;;;;;;6266106;28;20017;-70
2022/01/21 10:45:52;;;;;;;21.77;8.02;;;;;;;;;;6266350;28;20029;-70
2022/01/21 10:48:55;;;;;;;19.67;7.88;;;;;;;;;;6266780;28;20424;-70
2022/01/21 10:51:55;;;;;;;18.48;7.28;;;;;;;;;;6248812;28;20032;-70
2022/01/21 10:54:56;;;;;;;21.17;8.00;;;;;;;;;;6266963;28;20045;-70
2022/01/21 10:58:14;;;;;;;15.73;5.65;;;;;;;;;;6264501;28;20314;-70
2022/01/21 11:01:21;;;;;;;9.40;4.63;;;;;;;;;;6261470;28;20027;-71
2022/01/21 11:04:21;;;;;;;55.72;21.95;;;;;;;;;;6259885;28;20100;-70
2022/01/21 11:07:40;;;;;;;18.35;8.80;;;;;;;;;;6264271;28;20389;-70
2022/01/21 11:10:46;;;;;;;19.15;6.75;;;;;;;;;;6265857;28;20266;-71
2022/01/21 11:13:46;;;;;;;20.83;8.38;;;;;;;;;;6262283;28;20052;-71
2022/01/21 11:16:48;;;;;;;49.33;20.35;;;;;;;;;;6265207;28;20043;-71
2022/01/21 11:20:02;;;;;;;39.47;18.05;;;;;;;;;;6264506;28;20036;-71
2022/01/21 11:23:02;;;;;;;33.42;11.60;;;;;;;;;;6257800;28;20078;-71
2022/01/21 11:26:03;;;;;;;65.63;24.35;;;;;;;;;;6266124;28;20495;-71
2022/01/21 11:29:04;;;;;;;49.05;18.48;;;;;;;;;;6266201;28;20028;-71
2022/01/21 11:32:05;;;;;;;36.63;14.53;;;;;;;;;;6266371;28;20021;-71
2022/01/21 11:35:07;;;;;;;40.50;16.58;;;;;;;;;;6259676;28;20032;-71
2022/01/21 11:38:08;;;;;;;63.97;26.40;;;;;;;;;;6241140;28;20022;-71
2022/01/21 11:41:08;;;;;;;50.03;19.03;;;;;;;;;;6241293;28;20076;-72
2022/01/21 11:44:11;;;;;;;39.42;17.70;;;;;;;;;;6269036;28;20021;-72
2022/01/21 11:47:17;;;;;;;48.92;19.42;;;;;;;;;;6268155;28;20017;-72
2022/01/21 11:50:18;;;;;;;14.63;7.15;;;;;;;;;;6263409;28;20484;-72
2022/01/21 11:53:37;;;;;;;18.33;7.70;;;;;;;;;;6274708;28;20027;-72
2022/01/21 11:56:43;;;;;;;15.77;5.47;;;;;;;;;;6262508;28;20443;-73
2022/01/21 12:02:52;;;;;;;9.35;4.20;;;;;;;;;;6268599;28;20047;-73
2022/01/21 12:05:53;;;;;;;17.70;6.82;;;;;;;;;;6250113;28;20017;-73
2022/01/21 12:08:55;;;;;;;17.08;5.10;;;;;;;;;;6268029;28;20020;-73
2022/01/21 12:11:55;;;;;;;;;;;;;;;;;;6268849;28;20053;-73
2022/01/21 12:15:02;;;;;;;12.60;6.13;;;;;;;;;;6269346;28;19958;-73
2022/01/21 12:18:09;;;;;;;9.05;4.97;;;;;;;;;;6268879;28;20013;-73
2022/01/21 12:21:32;;;;;;;15.00;5.53;;;;;;;;;;6269537;28;20013;-74
2022/01/21 12:24:54;;;;;;;11.68;5.28;;;;;;;;;;6263205;28;20024;-74
2022/01/21 12:28:24;;;;;;;12.65;6.43;;;;;;;;;;6246578;28;20029;-74
2022/01/21 12:31:25;;;;;;;13.73;5.57;;;;;;;;;;6252351;28;20045;-74
2022/01/21 12:34:26;;;;;;;17.15;6.68;;;;;;;;;;6274175;28;20092;-74
2022/01/21 12:37:39;;;;;;;20.58;8.63;;;;;;;;;;6264303;28;20017;-75
2022/01/21 12:40:39;;;;;;;19.17;6.10;;;;;;;;;;6257569;28;20511;-75
2022/01/21 12:43:41;;;;;;;15.88;8.15;;;;;;;;;;6274957;28;20021;-74
2022/01/21 12:46:44;;;;;;;40.03;13.70;;;;;;;;;;6276689;28;20023;-74
2022/01/21 12:49:51;;;;;;;23.63;8.10;;;;;;;;;;6280845;28;20021;-74
2022/01/21 12:52:56;;;;;;;17.48;6.80;;;;;;;;;;6265075;28;20039;-74
2022/01/21 12:56:03;;;;;;;19.15;9.43;;;;;;;;;;6305264;28;20051;-74
2022/01/21 12:59:05;;;;;;;26.08;11.27;;;;;;;;;;6292534;28;20020;-74
2022/01/21 13:02:06;;;;;;;14.30;7.40;;;;;;;;;;6288970;28;20510;-74
2022/01/21 13:05:07;;;;;;;11.40;5.22;;;;;;;;;;6274716;28;20023;-74
2022/01/21 13:08:11;;;;;;;16.30;7.13;;;;;;;;;;6306394;28;20032;-74
2022/01/21 13:11:12;;;;;;;13.18;5.45;;;;;;;;;;6297429;28;20055;-75
2022/01/21 13:17:22;;;;;;;12.65;5.43;;;;;;;;;;6292762;28;20032;-75
2022/01/21 13:20:27;;;;;;;14.98;6.93;;;;;;;;;;6292506;28;20013;-75
2022/01/21 13:27:09;;;;;;;13.82;6.40;;;;;;;;;;6283084;28;20028;-75
2022/01/21 13:30:10;;;;;;;17.05;8.55;;;;;;;;;;6292176;28;20164;-75
2022/01/21 13:33:12;;;;;;;18.00;6.72;;;;;;;;;;6313843;28;20069;-75
2022/01/21 13:36:12;;;;;;;7.15;3.08;;;;;;;;;;6302242;28;20024;-75
2022/01/21 13:39:20;;;;;;;8.45;4.28;;;;;;;;;;6293751;28;20078;-75
2022/01/21 13:42:23;;;;;;;12.20;6.47;;;;;;;;;;6292047;28;20081;-75
2022/01/21 13:45:23;;;;;;;20.50;5.50;;;;;;;;;;6313675;28;20027;-75
2022/01/21 13:48:24;;;;;;;27.65;10.10;;;;;;;;;;6300262;28;20021;-75
2022/01/21 13:51:24;;;;;;;27.55;12.75;;;;;;;;;;6316578;28;20400;-75
2022/01/21 13:54:29;;;;;;;26.27;10.20;;;;;;;;;;6298383;28;20071;-75
2022/01/21 13:57:29;;;;;;;24.73;8.80;;;;;;;;;;6267723;28;20013;-75
2022/01/21 14:00:41;;;;;;;16.30;8.98;;;;;;;;;;6289899;28;20031;-75
2022/01/21 14:03:43;;;;;;;21.13;7.82;;;;;;;;;;6290764;28;20035;-75
2022/01/21 14:06:44;;;;;;;25.15;11.85;;;;;;;;;;6291338;28;20429;-75
2022/01/21 14:09:44;;;;;;;24.55;9.02;;;;;;;;;;6307478;28;20027;-75
2022/01/21 14:12:45;;;;;;;13.75;6.00;;;;;;;;;;6305794;28;20024;-75
2022/01/21 14:15:45;;;;;;;11.63;4.50;;;;;;;;;;6301661;28;20025;-75
2022/01/21 14:18:45;;;;;;;14.40;5.85;;;;;;;;;;6309426;28;20016;-75
2022/01/21 14:21:47;;;;;;;15.00;5.05;;;;;;;;;;6316371;28;20043;-75
2022/01/21 14:24:50;;;;;;;17.20;5.53;;;;;;;;;;6315879;28;20332;-75
2022/01/21 14:27:51;;;;;;;32.95;14.68;;;;;;;;;;6296123;28;20062;-75
2022/01/21 14:30:51;;;;;;;24.15;10.30;;;;;;;;;;6293304;28;20373;-74
2022/01/21 14:33:52;;;;;;;25.17;10.63;;;;;;;;;;6293044;28;20024;-74
2022/01/21 14:37:09;;;;;;;15.43;6.32;;;;;;;;;;6293234;28;20454;-74
2022/01/21 14:40:10;;;;;;;22.25;9.15;;;;;;;;;;6291315;28;20359;-74
2022/01/21 14:43:13;;;;;;;16.67;7.03;;;;;;;;;;6293017;28;20552;-74
2022/01/21 14:46:21;;;;;;;12.98;5.80;;;;;;;;;;6290735;28;20073;-74
2022/01/21 14:49:28;;;;;;;37.60;13.07;;;;;;;;;;6273738;28;20020;-74
2022/01/21 14:52:42;;;;;;;24.80;10.98;;;;;;;;;;6291511;28;20039;-74
2022/01/21 14:55:44;;;;;;;53.03;16.77;;;;;;;;;;6267064;28;20067;-74
2022/01/21 14:58:45;;;;;;;60.53;16.67;;;;;;;;;;6292232;28;20048;-74
2022/01/21 15:02:04;;;;;;;59.08;20.27;;;;;;;;;;6292307;28;20016;-74
2022/01/21 15:05:10;;;;;;;44.55;13.85;;;;;;;;;;6292352;28;20472;-74
2022/01/21 15:08:18;;;;;;;39.17;15.85;;;;;;;;;;6292258;28;20495;-73
2022/01/21 15:14:42;;;;;;;51.00;20.85;;;;;;;;;;6288107;28;20743;-73
2022/01/21 15:17:51;;;;;;;43.35;17.10;;;;;;;;;;6289188;28;20028;-73
2022/01/21 15:20:51;;;;;;;17.27;8.98;;;;;;;;;;6290477;28;20504;-73
2022/01/21 15:23:52;;;;;;;77.43;28.98;;;;;;;;;;6285532;28;20095;-73
2022/01/21 15:26:52;;;;;;;56.70;21.90;;;;;;;;;;6290643;28;20404;-73
2022/01/21 15:29:54;;;;;;;68.13;29.42;;;;;;;;;;6293374;28;20370;-73
2022/01/21 15:32:55;;;;;;;47.40;18.98;;;;;;;;;;6319317;28;20016;-72
2022/01/21 15:35:55;;;;;;;43.53;17.42;;;;;;;;;;6294417;28;20443;-72
2022/01/21 15:38:55;;;;;;;59.53;22.27;;;;;;;;;;6293576;28;20031;-72
2022/01/21 15:41:56;;;;;;;27.08;11.45;;;;;;;;;;6294307;28;20078;-72
2022/01/21 15:44:57;;;;;;;83.00;31.90;;;;;;;;;;6294447;28;20024;-72
2022/01/21 15:47:58;;;;;;;50.35;22.23;;;;;;;;;;6281481;28;20032;-72
2022/01/21 15:50:59;;;;;;;34.30;13.23;;;;;;;;;;6308233;28;20024;-72
2022/01/21 15:53:59;;;;;;;25.73;8.85;;;;;;;;;;6285554;28;20136;-72
2022/01/21 15:56:59;;;;;;;41.03;17.17;;;;;;;;;;6263446;28;20036;-72
2022/01/21 15:59:59;;;;;;;36.63;16.00;;;;;;;;;;6268161;28;20024;-72
2022/01/21 16:03:04;;;;;;;21.25;10.95;;;;;;;;;;6268050;28;20110;-72
2022/01/21 16:06:04;;;;;;;32.55;13.70;;;;;;;;;;6270519;28;20036;-72
2022/01/21 16:09:05;;;;;;;17.85;7.50;;;;;;;;;;6268430;28;20371;-71
2022/01/21 16:12:06;;;;;;;58.53;24.48;;;;;;;;;;6266511;28;20381;-71
2022/01/21 16:15:06;;;;;;;22.80;8.07;;;;;;;;;;6267011;28;20127;-71
2022/01/21 16:18:07;;;;;;;9.03;7.00;;;;;;;;;;6267070;28;20028;-71
2022/01/21 16:21:07;;;;;;;34.53;15.02;;;;;;;;;;6248830;28;20135;-71
2022/01/21 16:24:08;;;;;;;26.75;12.95;;;;;;;;;;6267270;28;20036;-71
2022/01/21 16:27:08;;;;;;;26.80;9.60;;;;;;;;;;6260466;28;20592;-71
2022/01/21 16:30:09;;;;;;;24.70;10.15;;;;;;;;;;6268872;28;20021;-71
2022/01/21 16:33:09;;;;;;;19.70;8.52;;;;;;;;;;6269481;28;20017;-71
2022/01/21 16:36:10;;;;;;;19.88;10.27;;;;;;;;;;6269251;28;20025;-71
2022/01/21 16:39:10;;;;;;;34.15;12.70;;;;;;;;;;6267865;28;20028;-71
2022/01/21 16:42:10;;;;;;;26.92;12.27;;;;;;;;;;6268690;28;20021;-71
2022/01/21 16:45:13;;;;;;;34.78;13.55;;;;;;;;;;6264714;28;20021;-71
2022/01/21 16:48:13;;;;;;;32.08;13.27;;;;;;;;;;6267081;28;20028;-71
2022/01/21 16:51:13;;;;;;;35.17;15.35;;;;;;;;;;6268683;28;20048;-71
2022/01/21 16:54:13;;;;;;;39.30;17.00;;;;;;;;;;6267568;28;20068;-71
2022/01/21 16:57:14;;;;;;;33.42;11.40;;;;;;;;;;6268033;28;20005;-71
2022/01/21 17:00:14;;;;;;;42.33;15.10;;;;;;;;;;6249428;28;20013;-71
2022/01/21 17:03:17;;;;;;;27.15;12.55;;;;;;;;;;6266912;28;20020;-71
2022/01/21 17:06:18;;;;;;;29.80;13.60;;;;;;;;;;6265116;28;20025;-71
2022/01/21 17:09:19;;;;;;;25.35;9.60;;;;;;;;;;6266909;28;20028;-71
2022/01/21 17:12:19;;;;;;;30.30;14.80;;;;;;;;;;6267549;28;20284;-71
2022/01/21 17:15:20;;;;;;;39.67;15.75;;;;;;;;;;6247958;28;20107;-71
2022/01/21 17:18:20;;;;;;;50.67;20.40;;;;;;;;;;6243615;28;20020;-70
2022/01/21 17:21:21;;;;;;;27.40;14.25;;;;;;;;;;6243946;28;20020;-70
2022/01/21 17:24:21;;;;;;;22.77;10.07;;;;;;;;;;6248015;28;20039;-70
2022/01/21 17:27:21;;;;;;;29.55;11.65;;;;;;;;;;6266896;28;20025;-70
2022/01/21 17:30:22;;;;;;;30.15;12.88;;;;;;;;;;6266653;28;20051;-70
2022/01/21 17:33:22;;;;;;;29.30;14.65;;;;;;;;;;6267630;28;20016;-70
2022/01/21 17:36:23;;;;;;;23.67;11.65;;;;;;;;;;6266830;28;20025;-70
2022/01/21 17:39:23;;;;;;;25.15;10.82;;;;;;;;;;6266453;28;20032;-70
2022/01/21 17:42:24;;;;;;;23.27;10.63;;;;;;;;;;6265460;28;20505;-70
2022/01/21 17:45:24;;;;;;;19.98;8.38;;;;;;;;;;6266546;28;20056;-70
2022/01/21 17:48:24;;;;;;;26.58;9.75;;;;;;;;;;6245966;28;20028;-70
2022/01/21 17:51:25;;;;;;;33.35;13.07;;;;;;;;;;6268061;28;20094;-70
2022/01/21 17:54:26;;;;;;;28.35;11.63;;;;;;;;;;6267078;28;20424;-70
2022/01/21 17:57:26;;;;;;;37.25;12.60;;;;;;;;;;6262332;28;20470;-70
2022/01/21 18:00:27;;;;;;;29.40;13.25;;;;;;;;;;6267540;28;20118;-70
2022/01/21 18:03:27;;;;;;;37.08;13.57;;;;;;;;;;6268492;28;20024;-70
2022/01/21 18:06:27;;;;;;;22.75;8.15;;;;;;;;;;6268507;28;20029;-70
2022/01/21 18:09:41;;;;;;;32.58;14.77;;;;;;;;;;6268164;28;20021;-70
2022/01/21 18:12:42;;;;;;;32.17;13.40;;;;;;;;;;6269148;28;20021;-70
2022/01/21 18:15:42;;;;;;;34.40;11.02;;;;;;;;;;6242637;28;20044;-70
2022/01/21 18:18:44;;;;;;;37.45;11.15;;;;;;;;;;6243668;28;20017;-70
2022/01/21 18:21:45;;;;;;;38.13;15.60;;;;;;;;;;6226163;28;20018;-70
2022/01/21 18:24:45;;;;;;;22.02;8.70;;;;;;;;;;6244066;28;20370;-70
2022/01/21 18:27:46;;;;;;;16.48;9.00;;;;;;;;;;6244059;28;20018;-70
2022/01/21 18:30:46;;;;;;;36.53;14.70;;;;;;;;;;6243566;28;20104;-70
2022/01/21 18:33:46;;;;;;;20.77;10.68;;;;;;;;;;6243934;28;20021;-70
2022/01/21 18:36:47;;;;;;;22.13;9.63;;;;;;;;;;6263871;28;20039;-70
2022/01/21 18:39:47;;;;;;;20.48;8.27;;;;;;;;;;6268163;28;20516;-70
2022/01/21 18:42:49;;;;;;;23.60;9.85;;;;;;;;;;6268581;28;20028;-70
2022/01/21 18:45:51;;;;;;;24.90;9.68;;;;;;;;;;6268566;28;20027;-70
2022/01/21 18:48:52;;;;;;;;;;;;;;;;;;6262114;28;20449;-70
2022/01/21 18:51:52;;;;;;;127.40;47.13;;;;;;;;;;6267091;28;19984;-70
2022/01/21 18:54:52;;;;;;;34.10;15.85;;;;;;;;;;6268119;28;20045;-70